createdAt,value
2018-03-19T00:02:01.297Z,66.20
2018-03-19T00:04:27.739Z,65.20
2018-03-19T00:06:54.287Z,65.90
2018-03-19T00:09:20.755Z,64.10
2018-03-19T00:11:47.204Z,66.10
2018-03-19T00:14:13.695Z,65.50
2018-03-19T00:16:40.180Z,64.10
2018-03-19T00:19:07.468Z,66.30
2018-03-19T00:21:33.974Z,66.30
2018-03-19T00:24:00.492Z,66.00
2018-03-19T00:26:26.961Z,64.20
2018-03-19T00:28:53.439Z,65.00
2018-03-19T00:31:19.909Z,65.70
2018-03-19T00:33:46.282Z,66.40
2018-03-19T00:36:12.702Z,65.50
2018-03-19T00:38:39.152Z,66.30
2018-03-19T00:41:05.655Z,64.20
2018-03-19T00:43:32.102Z,64.10
2018-03-19T00:45:58.559Z,65.90
2018-03-19T00:48:24.925Z,65.60
2018-03-19T00:50:52.056Z,65.80
2018-03-19T00:53:18.413Z,65.80
2018-03-19T00:55:44.819Z,65.90
2018-03-19T00:58:11.969Z,66.60
2018-03-19T01:00:39.112Z,64.90
2018-03-19T01:03:05.537Z,64.90
2018-03-19T01:05:31.962Z,63.20
2018-03-19T01:07:58.395Z,64.00
2018-03-19T01:10:24.821Z,65.10
2018-03-19T01:12:51.261Z,65.40
2018-03-19T01:15:17.661Z,65.90
2018-03-19T01:17:44.120Z,64.80
2018-03-19T01:20:10.468Z,64.80
2018-03-19T01:22:37.668Z,65.70
2018-03-19T01:25:04.062Z,64.90
2018-03-19T01:27:31.240Z,65.70
2018-03-19T01:29:57.626Z,65.70
2018-03-19T01:32:24.062Z,65.70
2018-03-19T01:34:51.167Z,67.20
2018-03-19T01:37:17.657Z,67.30
2018-03-19T01:39:44.037Z,64.80
2018-03-19T01:42:10.433Z,64.00
2018-03-19T01:44:36.828Z,64.00
2018-03-19T01:47:04.918Z,65.10
2018-03-19T01:49:32.122Z,64.90
2018-03-19T01:51:59.314Z,64.10
2018-03-19T01:54:25.710Z,64.00
2018-03-19T01:56:52.093Z,64.00
2018-03-19T01:59:18.497Z,64.40
2018-03-19T02:01:45.645Z,64.50
2018-03-19T02:04:12.746Z,64.10
2018-03-19T02:06:39.145Z,64.00
2018-03-19T02:09:05.569Z,64.80
2018-03-19T02:11:31.974Z,64.90
2018-03-19T02:13:58.390Z,63.50
2018-03-19T02:16:24.771Z,64.00
2018-03-19T02:18:51.257Z,64.00
2018-03-19T02:21:17.634Z,63.90
2018-03-19T02:23:43.999Z,64.80
2018-03-19T02:26:10.441Z,64.70
2018-03-19T02:28:36.821Z,65.10
2018-03-19T02:31:03.237Z,64.90
2018-03-19T02:33:29.654Z,65.20
2018-03-19T02:35:56.903Z,65.30
2018-03-19T02:38:23.247Z,65.30
2018-03-19T02:40:49.681Z,64.20
2018-03-19T02:43:16.805Z,64.80
2018-03-19T02:45:43.937Z,65.70
2018-03-19T02:48:10.302Z,65.70
2018-03-19T02:50:37.421Z,66.20
2018-03-19T02:53:03.811Z,66.10
2018-03-19T02:55:30.173Z,64.00
2018-03-19T02:57:56.607Z,64.00
2018-03-19T03:00:23.017Z,64.20
2018-03-19T03:02:49.418Z,64.00
2018-03-19T03:05:15.793Z,64.10
2018-03-19T03:07:42.192Z,65.00
2018-03-19T03:10:08.697Z,64.00
2018-03-19T03:12:35.090Z,64.00
2018-03-19T03:15:01.533Z,64.10
2018-03-19T03:17:28.691Z,64.10
2018-03-19T03:19:55.085Z,64.00
2018-03-19T03:22:22.228Z,64.60
2018-03-19T03:24:48.596Z,64.60
2018-03-19T03:27:14.970Z,64.50
2018-03-19T03:29:41.366Z,64.00
2018-03-19T03:32:07.765Z,64.00
2018-03-19T03:34:34.195Z,64.80
2018-03-19T03:37:00.599Z,64.00
2018-03-19T03:39:26.960Z,66.80
2018-03-19T03:41:53.402Z,64.80
2018-03-19T03:44:19.821Z,64.40
2018-03-19T03:46:46.224Z,64.10
2018-03-19T03:49:12.605Z,65.40
2018-03-19T03:51:38.988Z,64.10
2018-03-19T03:54:05.368Z,64.80
2018-03-19T03:56:31.806Z,64.30
2018-03-19T03:58:58.221Z,64.40
2018-03-19T04:01:24.580Z,64.60
2018-03-19T04:03:51.712Z,64.80
2018-03-19T04:06:18.131Z,64.00
2018-03-19T04:08:44.547Z,63.90
2018-03-19T04:11:10.784Z,64.40
2018-03-19T04:13:37.215Z,64.70
2018-03-19T04:16:03.698Z,63.60
2018-03-19T04:18:30.066Z,64.00
2018-03-19T04:20:56.461Z,63.70
2018-03-19T04:23:22.850Z,64.00
2018-03-19T04:25:49.242Z,65.40
2018-03-19T04:28:15.613Z,63.20
2018-03-19T04:30:41.998Z,63.70
2018-03-19T04:33:08.387Z,63.90
2018-03-19T04:35:34.788Z,63.90
2018-03-19T04:38:01.165Z,63.20
2018-03-19T04:40:28.283Z,64.20
2018-03-19T04:42:54.677Z,64.20
2018-03-19T04:45:21.081Z,65.10
2018-03-19T04:47:47.468Z,63.30
2018-03-19T04:50:13.853Z,63.90
2018-03-19T04:52:40.244Z,63.70
2018-03-19T04:55:06.601Z,63.90
2018-03-19T04:57:33.007Z,63.90
2018-03-19T04:59:59.385Z,63.90
2018-03-19T05:02:25.785Z,65.00
2018-03-19T05:04:52.173Z,64.40
2018-03-19T05:07:18.523Z,63.80
2018-03-19T05:09:44.963Z,63.80
2018-03-19T05:12:11.342Z,63.80
2018-03-19T05:14:37.903Z,63.90
2018-03-19T05:17:04.238Z,62.80
2018-03-19T05:19:30.688Z,64.10
2018-03-19T05:21:57.825Z,63.90
2018-03-19T05:24:24.236Z,63.90
2018-03-19T05:26:50.678Z,63.90
2018-03-19T05:29:17.099Z,63.00
2018-03-19T05:31:43.499Z,63.80
2018-03-19T05:34:09.933Z,64.40
2018-03-19T05:36:36.458Z,65.00
2018-03-19T05:39:03.024Z,63.90
2018-03-19T05:41:29.574Z,63.30
2018-03-19T05:43:56.033Z,63.90
2018-03-19T05:46:22.474Z,64.90
2018-03-19T05:48:48.870Z,63.90
2018-03-19T05:51:15.330Z,63.80
2018-03-19T05:53:42.449Z,63.60
2018-03-19T05:56:08.801Z,63.40
2018-03-19T05:58:35.209Z,63.60
2018-03-19T06:01:01.597Z,63.80
2018-03-19T06:03:28.044Z,63.90
2018-03-19T06:05:54.453Z,63.90
2018-03-19T06:08:20.876Z,63.80
2018-03-19T06:10:47.266Z,63.20
2018-03-19T06:13:13.612Z,63.90
2018-03-19T06:15:40.065Z,64.30
2018-03-19T06:18:07.204Z,62.70
2018-03-19T06:20:33.589Z,62.70
2018-03-19T06:22:59.964Z,63.80
2018-03-19T06:25:26.374Z,63.90
2018-03-19T06:27:52.754Z,63.60
2018-03-19T06:30:19.163Z,63.90
2018-03-19T06:32:45.733Z,64.00
2018-03-19T06:35:12.162Z,63.10
2018-03-19T06:37:38.556Z,64.00
2018-03-19T06:40:05.697Z,62.70
2018-03-19T06:42:32.958Z,62.70
2018-03-19T06:44:59.357Z,62.70
2018-03-19T06:47:25.842Z,64.10
2018-03-19T06:49:52.202Z,64.00
2018-03-19T06:52:20.658Z,62.70
2018-03-19T06:54:47.029Z,62.80
2018-03-19T06:57:13.420Z,63.00
2018-03-19T06:59:39.762Z,63.40
2018-03-19T07:02:06.166Z,64.20
2018-03-19T07:04:32.590Z,64.00
2018-03-19T07:06:59.712Z,62.70
2018-03-19T07:09:26.096Z,62.60
2018-03-19T07:11:52.503Z,62.70
2018-03-19T07:14:18.910Z,61.80
2018-03-19T07:16:46.050Z,62.00
2018-03-19T07:19:12.429Z,62.00
2018-03-19T07:21:38.793Z,61.40
2018-03-19T07:24:05.181Z,62.30
2018-03-19T07:26:31.551Z,59.80
2018-03-19T07:28:57.964Z,60.10
2018-03-19T07:31:24.509Z,62.80
2018-03-19T07:33:51.242Z,62.10
2018-03-19T07:36:17.617Z,63.10
2018-03-19T07:38:43.999Z,61.80
2018-03-19T07:41:10.374Z,61.80
2018-03-19T07:43:36.782Z,59.90
2018-03-19T07:46:03.182Z,61.50
2018-03-19T07:48:29.601Z,62.20
2018-03-19T07:50:56.032Z,62.20
2018-03-19T07:53:22.384Z,61.70
2018-03-19T07:55:48.821Z,60.20
2018-03-19T07:58:15.215Z,58.90
2018-03-19T08:00:42.353Z,61.50
2018-03-19T08:03:08.743Z,61.50
2018-03-19T08:05:35.185Z,60.10
2018-03-19T08:08:01.579Z,61.50
2018-03-19T08:10:27.974Z,60.50
2018-03-19T08:12:55.163Z,59.90
2018-03-19T08:15:21.552Z,59.90
2018-03-19T08:17:47.992Z,60.00
2018-03-19T08:20:15.125Z,59.80
2018-03-19T08:22:42.270Z,61.30
2018-03-19T08:25:08.644Z,60.60
2018-03-19T08:27:35.041Z,61.70
2018-03-19T08:30:02.184Z,61.20
2018-03-19T08:32:28.575Z,61.20
2018-03-19T08:34:54.946Z,58.90
2018-03-19T08:37:21.310Z,60.50
2018-03-19T08:39:47.699Z,60.90
2018-03-19T08:42:14.813Z,59.90
2018-03-19T08:44:41.212Z,60.00
2018-03-19T08:47:07.558Z,59.60
2018-03-19T08:49:33.999Z,60.00
2018-03-19T08:52:00.394Z,58.00
2018-03-19T08:54:26.830Z,59.60
2018-03-19T08:56:53.225Z,59.80
2018-03-19T08:59:19.607Z,60.10
2018-03-19T09:01:45.990Z,61.20
2018-03-19T09:04:13.957Z,62.30
2018-03-19T09:06:40.418Z,62.30
2018-03-19T09:09:06.888Z,60.40
2018-03-19T09:11:33.235Z,60.60
2018-03-19T09:13:59.663Z,58.40
2018-03-19T09:16:26.035Z,58.60
2018-03-19T09:18:53.172Z,56.60
2018-03-19T09:21:19.547Z,56.60
2018-03-19T09:23:45.930Z,58.70
2018-03-19T09:26:12.282Z,56.90
2018-03-19T09:28:38.768Z,57.70
2018-03-19T09:31:05.309Z,59.40
2018-03-19T09:33:31.685Z,60.30
2018-03-19T09:35:58.058Z,60.10
2018-03-19T09:38:24.480Z,56.70
2018-03-19T09:40:50.910Z,57.40
2018-03-19T09:43:17.354Z,57.00
2018-03-19T09:45:43.756Z,58.40
2018-03-19T09:48:10.169Z,56.90
2018-03-19T09:50:36.644Z,57.80
2018-03-19T09:53:03.025Z,58.00
2018-03-19T09:55:30.146Z,58.50
2018-03-19T09:57:56.545Z,58.50
2018-03-19T10:00:22.989Z,56.30
2018-03-19T10:02:50.277Z,57.00
2018-03-19T10:05:16.664Z,58.20
2018-03-19T10:07:43.129Z,57.00
2018-03-19T10:10:09.604Z,58.00
2018-03-19T10:12:36.787Z,59.10
2018-03-19T10:15:03.286Z,59.10
2018-03-19T10:17:29.682Z,58.90
2018-03-19T10:19:56.767Z,58.50
2018-03-19T10:22:23.224Z,58.50
2018-03-19T10:24:49.597Z,58.80
2018-03-19T10:27:16.694Z,59.60
2018-03-19T10:29:43.895Z,59.60
2018-03-19T10:32:11.009Z,59.00
2018-03-19T10:34:37.438Z,59.00
2018-03-19T10:37:03.859Z,58.90
2018-03-19T10:39:30.284Z,60.20
2018-03-19T10:41:56.652Z,59.50
2018-03-19T10:44:23.064Z,59.50
2018-03-19T10:46:49.494Z,60.00
2018-03-19T10:49:15.910Z,60.70
2018-03-19T10:51:42.281Z,60.50
2018-03-19T10:54:09.425Z,59.60
2018-03-19T10:56:35.852Z,59.60
2018-03-19T10:59:02.274Z,59.30
2018-03-19T11:01:34.785Z,59.40
2018-03-19T11:04:01.233Z,58.80
2018-03-19T11:06:33.618Z,59.50
2018-03-19T11:09:06.096Z,60.20
2018-03-19T11:11:32.489Z,58.40
2018-03-19T11:13:58.938Z,56.90
2018-03-19T11:16:25.330Z,57.00
2018-03-19T11:18:51.701Z,58.40
2018-03-19T11:21:18.106Z,59.30
2018-03-19T11:23:44.570Z,59.90
2018-03-19T11:26:10.983Z,58.90
2018-03-19T11:28:37.404Z,59.70
2018-03-19T11:31:03.850Z,58.10
2018-03-19T11:33:30.275Z,57.50
2018-03-19T11:35:57.457Z,58.00
2018-03-19T11:38:23.896Z,58.00
2018-03-19T11:40:50.356Z,57.30
2018-03-19T11:43:16.834Z,56.40
2018-03-19T11:45:43.240Z,58.00
2018-03-19T11:48:10.426Z,58.30
2018-03-19T11:50:36.842Z,58.30
2018-03-19T11:53:03.326Z,56.50
2018-03-19T11:55:29.742Z,56.90
2018-03-19T11:57:56.154Z,56.90
2018-03-19T12:00:22.578Z,55.90
2018-03-19T12:02:49.057Z,54.90
2018-03-19T12:05:15.479Z,56.20
2018-03-19T12:07:42.625Z,57.10
2018-03-19T12:10:09.059Z,55.00
2018-03-19T12:12:35.405Z,56.90
2018-03-19T12:15:01.812Z,56.40
2018-03-19T12:17:28.233Z,55.40
2018-03-19T12:19:54.595Z,57.40
2018-03-19T12:22:21.795Z,54.60
2018-03-19T12:24:48.238Z,54.50
2018-03-19T12:27:14.655Z,53.80
2018-03-19T12:29:41.644Z,54.40
2018-03-19T12:32:08.064Z,54.00
2018-03-19T12:34:34.401Z,53.30
2018-03-19T12:37:00.776Z,54.80
2018-03-19T12:39:27.203Z,55.30
2018-03-19T12:41:53.635Z,54.80
2018-03-19T12:44:20.754Z,55.10
2018-03-19T12:46:47.122Z,55.10
2018-03-19T12:49:13.522Z,55.40
2018-03-19T12:51:40.714Z,54.20
2018-03-19T12:54:07.183Z,53.50
2018-03-19T12:56:33.623Z,53.50
2018-03-19T12:59:00.008Z,54.60
2018-03-19T13:01:26.844Z,54.30
2018-03-19T13:03:53.921Z,55.60
2018-03-19T13:06:20.367Z,55.60
2018-03-19T13:08:46.722Z,56.70
2018-03-19T13:11:13.130Z,56.20
2018-03-19T13:13:39.570Z,57.60
2018-03-19T13:16:05.999Z,57.20
2018-03-19T13:18:32.510Z,55.20
2018-03-19T13:20:58.881Z,55.30
2018-03-19T13:23:26.023Z,54.90
2018-03-19T13:25:52.399Z,54.80
2018-03-19T13:28:18.821Z,57.70
2018-03-19T13:30:45.185Z,55.10
2018-03-19T13:33:11.653Z,54.90
2018-03-19T13:35:38.776Z,56.10
2018-03-19T13:38:05.151Z,56.10
2018-03-19T13:40:31.561Z,54.50
2018-03-19T13:42:57.951Z,55.20
2018-03-19T13:45:24.411Z,55.40
2018-03-19T13:47:50.787Z,56.00
2018-03-19T13:50:17.212Z,54.80
2018-03-19T13:52:43.591Z,56.10
2018-03-19T13:55:10.009Z,54.80
2018-03-19T13:57:36.361Z,54.60
2018-03-19T14:00:02.912Z,54.40
2018-03-19T14:02:30.055Z,54.90
2018-03-19T14:04:56.949Z,55.00
2018-03-19T14:07:23.371Z,54.00
2018-03-19T14:09:49.829Z,54.40
2018-03-19T14:12:17.023Z,53.90
2018-03-19T14:14:44.266Z,53.80
2018-03-19T14:17:10.676Z,53.80
2018-03-19T14:19:37.100Z,54.40
2018-03-19T14:22:03.536Z,55.10
2018-03-19T14:24:29.953Z,54.10
2018-03-19T14:26:56.426Z,53.50
2018-03-19T14:29:22.918Z,54.40
2018-03-19T14:31:49.275Z,55.10
2018-03-19T14:34:16.475Z,53.90
2018-03-19T14:36:43.736Z,53.10
2018-03-19T14:39:10.155Z,54.30
2018-03-19T14:41:37.350Z,54.20
2018-03-19T14:44:03.805Z,54.70
2018-03-19T14:46:30.903Z,53.70
2018-03-19T14:49:04.168Z,53.60
2018-03-19T14:51:30.540Z,54.40
2018-03-19T14:53:57.069Z,54.70
2018-03-19T14:56:23.457Z,53.40
2018-03-19T14:58:49.861Z,53.80
2018-03-19T15:01:17.027Z,54.70
2018-03-19T15:03:44.145Z,53.40
2018-03-19T15:06:10.521Z,53.40
2018-03-19T15:08:36.915Z,54.70
2018-03-19T15:11:03.391Z,55.50
2018-03-19T15:13:29.865Z,56.30
2018-03-19T15:15:56.268Z,55.60
2018-03-19T15:18:22.689Z,54.70
2018-03-19T15:20:49.102Z,54.00
2018-03-19T15:23:15.546Z,54.70
2018-03-19T15:25:41.995Z,55.30
2018-03-19T15:28:08.458Z,56.30
2018-03-19T15:30:34.862Z,54.60
2018-03-19T15:33:01.314Z,55.10
2018-03-19T15:35:27.689Z,55.10
2018-03-19T15:37:54.133Z,54.70
2018-03-19T15:40:20.555Z,55.00
2018-03-19T15:42:46.929Z,55.30
2018-03-19T15:45:13.365Z,55.90
2018-03-19T15:47:39.749Z,55.90
2018-03-19T15:50:06.200Z,56.20
2018-03-19T15:52:33.377Z,55.50
2018-03-19T15:54:59.851Z,55.50
2018-03-19T15:57:26.325Z,55.20
2018-03-19T15:59:52.719Z,56.50
2018-03-19T16:02:19.093Z,56.00
2018-03-19T16:04:45.506Z,55.40
2018-03-19T16:07:11.866Z,56.20
2018-03-19T16:09:38.280Z,56.60
2018-03-19T16:12:04.690Z,55.00
2018-03-19T16:14:31.087Z,55.50
2018-03-19T16:16:57.552Z,55.80
2018-03-19T16:19:23.978Z,54.40
2018-03-19T16:21:50.414Z,53.40
2018-03-19T16:24:16.786Z,53.60
2018-03-19T16:26:44.659Z,55.00
2018-03-19T16:29:11.065Z,55.00
2018-03-19T16:31:37.507Z,54.30
2018-03-19T16:34:03.911Z,52.40
2018-03-19T16:36:30.358Z,53.60
2018-03-19T16:38:56.755Z,53.00
2018-03-19T16:41:23.173Z,53.50
2018-03-19T16:43:50.408Z,52.50
2018-03-19T16:46:17.529Z,53.20
2018-03-19T16:48:43.905Z,53.20
2018-03-19T16:51:10.329Z,52.90
2018-03-19T16:53:37.471Z,54.00
2018-03-19T16:56:04.608Z,55.10
2018-03-19T16:58:31.052Z,55.10
2018-03-19T17:00:57.462Z,56.00
2018-03-19T17:03:23.905Z,52.50
2018-03-19T17:05:50.336Z,52.20
2018-03-19T17:08:16.713Z,52.20
2018-03-19T17:10:43.102Z,52.60
2018-03-19T17:13:09.489Z,52.00
2018-03-19T17:15:35.938Z,51.60
2018-03-19T17:18:03.339Z,50.30
2018-03-19T17:20:29.782Z,50.80
2018-03-19T17:22:56.177Z,50.90
2018-03-19T17:25:22.590Z,52.00
2018-03-19T17:27:49.002Z,51.40
2018-03-19T17:30:15.460Z,51.60
2018-03-19T17:32:41.934Z,51.20
2018-03-19T17:35:08.366Z,52.30
2018-03-19T17:37:34.777Z,50.90
2018-03-19T17:40:01.978Z,49.40
2018-03-19T17:42:28.384Z,49.40
2018-03-19T17:44:54.770Z,50.70
2018-03-19T17:47:21.150Z,50.80
2018-03-19T17:49:47.814Z,50.20
2018-03-19T17:52:14.243Z,50.40
2018-03-19T17:54:40.683Z,50.60
2018-03-19T17:57:07.153Z,51.60
2018-03-19T17:59:34.286Z,52.20
2018-03-19T18:02:00.744Z,52.20
2018-03-19T18:04:27.253Z,51.90
2018-03-19T18:06:54.471Z,52.20
2018-03-19T18:09:21.016Z,52.20
2018-03-19T18:11:47.474Z,52.00
2018-03-19T18:14:13.921Z,51.60
2018-03-19T18:16:42.523Z,51.20
2018-03-19T18:19:08.962Z,51.20
2018-03-19T18:21:35.462Z,51.40
2018-03-19T18:24:02.681Z,50.80
2018-03-19T18:26:29.243Z,50.80
2018-03-19T18:28:55.730Z,51.40
2018-03-19T18:31:22.226Z,52.70
2018-03-19T18:33:48.643Z,51.90
2018-03-19T18:36:15.109Z,52.50
2018-03-19T18:38:41.500Z,52.20
2018-03-19T18:41:07.941Z,52.00
2018-03-19T18:43:35.071Z,52.10
2018-03-19T18:46:02.318Z,49.90
2018-03-19T18:48:28.769Z,49.90
2018-03-19T18:50:55.323Z,51.70
2018-03-19T18:53:21.758Z,51.70
2018-03-19T18:55:48.241Z,50.30
2018-03-19T18:58:14.667Z,49.00
2018-03-19T19:00:41.255Z,48.80
2018-03-19T19:03:07.721Z,50.30
2018-03-19T19:05:34.177Z,51.00
2018-03-19T19:08:00.646Z,50.80
2018-03-19T19:10:27.864Z,50.20
2018-03-19T19:12:56.062Z,49.20
2018-03-19T19:15:22.492Z,49.20
2018-03-19T19:17:48.895Z,51.00
2018-03-19T19:20:15.381Z,50.90
2018-03-19T19:22:41.871Z,50.00
2018-03-19T19:25:08.416Z,49.90
2018-03-19T19:27:35.602Z,47.60
2018-03-19T19:30:02.114Z,47.70
2018-03-19T19:32:28.581Z,49.60
2018-03-19T19:34:55.082Z,49.70
2018-03-19T19:37:21.552Z,49.90
2018-03-19T19:39:48.162Z,51.20
2018-03-19T19:42:14.693Z,49.00
2018-03-19T19:44:41.114Z,50.70
2018-03-19T19:47:07.624Z,49.70
2018-03-19T19:49:34.095Z,50.30
2018-03-19T19:52:01.642Z,48.10
2018-03-19T19:54:28.102Z,49.70
2018-03-19T19:56:54.595Z,50.10
2018-03-19T19:59:21.047Z,48.40
2018-03-19T20:01:47.596Z,49.90
2018-03-19T20:04:14.069Z,48.50
2018-03-19T20:06:40.528Z,49.20
2018-03-19T20:09:07.744Z,48.70
2018-03-19T20:11:34.215Z,48.70
2018-03-19T20:14:00.750Z,48.30
2018-03-19T20:16:27.249Z,47.70
2018-03-19T20:18:53.900Z,47.60
2018-03-19T20:21:20.361Z,49.00
2018-03-19T20:23:46.842Z,48.30
2018-03-19T20:26:13.296Z,48.70
2018-03-19T20:28:39.727Z,49.40
2018-03-19T20:31:07.004Z,50.90
2018-03-19T20:33:33.490Z,50.80
2018-03-19T20:36:00.024Z,48.10
2018-03-19T20:38:26.623Z,47.90
2018-03-19T20:40:53.209Z,48.60
2018-03-19T20:43:19.667Z,47.60
2018-03-19T20:45:46.203Z,48.10
2018-03-19T20:48:12.730Z,47.70
2018-03-19T20:50:39.201Z,47.90
2018-03-19T20:53:05.770Z,47.60
2018-03-19T20:55:32.215Z,47.60
2018-03-19T20:57:59.368Z,48.10
2018-03-19T21:00:25.778Z,47.60
2018-03-19T21:02:52.229Z,49.00
2018-03-19T21:05:19.427Z,48.70
2018-03-19T21:07:45.866Z,48.70
2018-03-19T21:10:12.352Z,48.10
2018-03-19T21:12:39.638Z,47.60
2018-03-19T21:15:06.093Z,47.70
2018-03-19T21:17:32.520Z,48.70
2018-03-19T21:19:58.949Z,47.50
2018-03-19T21:22:25.400Z,48.00
2018-03-19T21:24:51.814Z,47.90
2018-03-19T21:27:18.276Z,48.10
2018-03-19T21:29:44.730Z,47.60
2018-03-19T21:32:11.954Z,45.80
2018-03-19T21:34:38.460Z,45.80
2018-03-19T21:37:04.930Z,46.30
2018-03-19T21:39:31.359Z,46.30
2018-03-19T21:41:57.901Z,45.60
2018-03-19T21:44:25.157Z,46.30
2018-03-19T21:46:51.675Z,45.60
2018-03-19T21:49:18.110Z,45.60
2018-03-19T21:51:45.291Z,47.20
2018-03-19T21:54:11.831Z,47.10
2018-03-19T21:56:38.247Z,47.60
2018-03-19T21:59:05.416Z,47.60
2018-03-19T22:01:31.859Z,47.60
2018-03-19T22:03:58.265Z,46.00
2018-03-19T22:06:24.678Z,47.00
2018-03-19T22:08:51.838Z,46.30
2018-03-19T22:11:19.015Z,47.50
2018-03-19T22:13:45.518Z,47.50
2018-03-19T22:16:11.985Z,46.10
2018-03-19T22:18:38.474Z,46.80
2018-03-19T22:21:04.896Z,47.90
2018-03-19T22:23:31.338Z,47.60
2018-03-19T22:25:57.775Z,48.40
2018-03-19T22:28:24.163Z,48.30
2018-03-19T22:30:50.600Z,48.60
2018-03-19T22:33:17.018Z,49.00
2018-03-19T22:35:43.435Z,48.40
2018-03-19T22:38:09.847Z,48.60
2018-03-19T22:40:36.323Z,48.80
2018-03-19T22:43:03.466Z,47.70
2018-03-19T22:45:29.909Z,47.70
2018-03-19T22:47:56.307Z,48.20
2018-03-19T22:50:22.748Z,47.20
2018-03-19T22:52:49.191Z,46.20
2018-03-19T22:55:15.661Z,46.50
2018-03-19T22:57:42.127Z,47.20
2018-03-19T23:00:08.582Z,47.20
2018-03-19T23:02:34.989Z,47.20
2018-03-19T23:07:59.662Z,47.20
2018-03-19T23:10:26.041Z,47.30
2018-03-19T23:12:52.416Z,47.30
2018-03-19T23:15:18.970Z,47.20
2018-03-19T23:17:46.094Z,47.80
2018-03-19T23:20:12.532Z,47.80
2018-03-19T23:22:38.929Z,48.20
2018-03-19T23:25:05.330Z,48.20
2018-03-19T23:27:31.693Z,48.60
2018-03-19T23:29:58.088Z,49.20
2018-03-19T23:32:24.558Z,49.00
2018-03-19T23:34:50.995Z,49.10
2018-03-19T23:37:17.417Z,50.10
2018-03-19T23:39:43.827Z,50.00
2018-03-19T23:42:10.834Z,49.10
2018-03-19T23:44:37.962Z,50.00
2018-03-19T23:47:04.397Z,49.90
2018-03-19T23:49:30.781Z,49.20
2018-03-19T23:51:57.195Z,49.60
2018-03-19T23:54:28.697Z,49.70
2018-03-19T23:56:55.136Z,50.20
2018-03-19T23:59:21.650Z,50.80
